sensor_id;sensor_type;location;lat;lon;timestamp;pressure;altitude;pressure_sealevel;temperature;humidity
6200;BME280;3133;43.214;27.906;2023-08-20T00:00:58;100671.03;;;24.79;100.00
6200;BME280;3133;43.214;27.906;2023-08-20T00:03:26;100686.53;;;24.88;100.00
6200;BME280;3133;43.214;27.906;2023-08-20T00:05:55;100664.19;;;24.74;100.00
6200;BME280;3133;43.214;27.906;2023-08-20T00:08:22;100686.44;;;24.90;100.00
6200;BME280;3133;43.214;27.906;2023-08-20T00:10:49;100686.44;;;24.90;100.00
6200;BME280;3133;43.214;27.906;2023-08-20T00:13:16;100682.81;;;24.75;100.00
6200;BME280;3133;43.214;27.906;2023-08-20T00:15:43;100685.50;;;24.75;100.00
6200;BME280;3133;43.214;27.906;2023-08-20T00:18:10;100690.81;;;24.75;100.00
6200;BME280;3133;43.214;27.906;2023-08-20T00:20:37;100692.06;;;24.68;100.00
6200;BME280;3133;43.214;27.906;2023-08-20T00:23:08;100682.66;;;24.61;100.00
6200;BME280;3133;43.214;27.906;2023-08-20T00:25:35;100677.09;;;24.50;100.00
6200;BME280;3133;43.214;27.906;2023-08-20T00:28:03;100685.00;;;24.52;100.00
6200;BME280;3133;43.214;27.906;2023-08-20T00:30:30;100687.75;;;24.50;100.00
6200;BME280;3133;43.214;27.906;2023-08-20T00:32:56;100680.47;;;24.21;100.00
6200;BME280;3133;43.214;27.906;2023-08-20T00:35:23;100688.38;;;24.22;100.00
6200;BME280;3133;43.214;27.906;2023-08-20T00:37:52;100688.44;;;24.21;100.00
6200;BME280;3133;43.214;27.906;2023-08-20T00:40:21;100704.91;;;24.29;100.00
6200;BME280;3133;43.214;27.906;2023-08-20T00:42:47;100693.63;;;24.24;100.00
6200;BME280;3133;43.214;27.906;2023-08-20T00:45:14;100698.53;;;24.16;100.00
6200;BME280;3133;43.214;27.906;2023-08-20T00:47:42;100693.25;;;24.14;100.00
6200;BME280;3133;43.214;27.906;2023-08-20T00:50:09;100685.88;;;24.02;100.00
6200;BME280;3133;43.214;27.906;2023-08-20T00:52:38;100685.66;;;24.07;100.00
6200;BME280;3133;43.214;27.906;2023-08-20T00:55:08;100696.69;;;23.99;100.00
6200;BME280;3133;43.214;27.906;2023-08-20T00:57:37;100678.34;;;23.93;100.00
6200;BME280;3133;43.214;27.906;2023-08-20T01:00:05;100667.69;;;23.93;100.00
6200;BME280;3133;43.214;27.906;2023-08-20T01:02:34;100686.75;;;24.03;100.00
6200;BME280;3133;43.214;27.906;2023-08-20T01:05:02;100688.00;;;23.96;100.00
6200;BME280;3133;43.214;27.906;2023-08-20T01:07:36;100661.06;;;23.85;100.00
6200;BME280;3133;43.214;27.906;2023-08-20T01:10:11;100692.66;;;23.92;100.00
6200;BME280;3133;43.214;27.906;2023-08-20T01:12:43;100683.56;;;23.79;100.00
6200;BME280;3133;43.214;27.906;2023-08-20T01:15:10;100678.53;;;23.73;100.00
6200;BME280;3133;43.214;27.906;2023-08-20T01:17:39;100686.06;;;23.65;100.00
6200;BME280;3133;43.214;27.906;2023-08-20T01:20:07;100678.59;;;23.72;100.00
6200;BME280;3133;43.214;27.906;2023-08-20T01:22:50;100699.53;;;23.79;100.00
6200;BME280;3133;43.214;27.906;2023-08-20T01:25:28;100683.00;;;23.73;100.00
6200;BME280;3133;43.214;27.906;2023-08-20T01:30:35;100676.63;;;23.58;100.00
6200;BME280;3133;43.214;27.906;2023-08-20T01:33:03;100685.28;;;23.63;100.00
6200;BME280;3133;43.214;27.906;2023-08-20T01:35:30;100675.56;;;23.45;100.00
6200;BME280;3133;43.214;27.906;2023-08-20T01:37:57;100690.22;;;23.53;100.00
6200;BME280;3133;43.214;27.906;2023-08-20T01:40:24;100677.91;;;23.51;100.00
6200;BME280;3133;43.214;27.906;2023-08-20T01:42:52;100671.03;;;23.47;100.00
6200;BME280;3133;43.214;27.906;2023-08-20T01:45:19;100681.72;;;23.45;100.00
6200;BME280;3133;43.214;27.906;2023-08-20T01:47:48;100689.25;;;23.54;100.00
6200;BME280;3133;43.214;27.906;2023-08-20T01:50:15;100687.28;;;23.41;100.00
6200;BME280;3133;43.214;27.906;2023-08-20T01:52:42;100686.44;;;23.40;100.00
6200;BME280;3133;43.214;27.906;2023-08-20T01:55:09;100682.47;;;23.30;100.00
6200;BME280;3133;43.214;27.906;2023-08-20T01:57:36;100671.19;;;23.25;100.00
6200;BME280;3133;43.214;27.906;2023-08-20T02:00:04;100685.72;;;23.37;100.00
6200;BME280;3133;43.214;27.906;2023-08-20T02:02:33;100672.50;;;23.35;100.00
6200;BME280;3133;43.214;27.906;2023-08-20T02:05:02;100664.06;;;23.26;100.00
6200;BME280;3133;43.214;27.906;2023-08-20T02:07:29;100672.22;;;23.23;100.00
6200;BME280;3133;43.214;27.906;2023-08-20T02:09:56;100664.88;;;23.28;100.00
6200;BME280;3133;43.214;27.906;2023-08-20T02:12:22;100676.88;;;23.36;100.00
6200;BME280;3133;43.214;27.906;2023-08-20T02:14:49;100650.03;;;23.22;100.00
6200;BME280;3133;43.214;27.906;2023-08-20T02:17:20;100677.75;;;23.18;100.00
6200;BME280;3133;43.214;27.906;2023-08-20T02:19:47;100649.88;;;23.08;100.00
6200;BME280;3133;43.214;27.906;2023-08-20T02:22:16;100672.66;;;23.14;100.00
6200;BME280;3133;43.214;27.906;2023-08-20T02:24:46;100668.03;;;23.17;100.00
6200;BME280;3133;43.214;27.906;2023-08-20T02:27:13;100663.75;;;23.15;100.00
6200;BME280;3133;43.214;27.906;2023-08-20T02:29:40;100669.81;;;23.00;100.00
6200;BME280;3133;43.214;27.906;2023-08-20T02:32:06;100665.41;;;22.99;100.00
6200;BME280;3133;43.214;27.906;2023-08-20T02:34:33;100682.66;;;23.09;100.00
6200;BME280;3133;43.214;27.906;2023-08-20T02:37:00;100681.88;;;23.07;100.00
6200;BME280;3133;43.214;27.906;2023-08-20T02:39:28;100649.19;;;22.86;100.00
6200;BME280;3133;43.214;27.906;2023-08-20T02:41:56;100665.63;;;22.94;100.00
6200;BME280;3133;43.214;27.906;2023-08-20T02:44:23;100685.34;;;22.90;100.00
6200;BME280;3133;43.214;27.906;2023-08-20T02:46:50;100699.59;;;22.70;100.00
6200;BME280;3133;43.214;27.906;2023-08-20T02:49:17;100682.75;;;22.70;100.00
6200;BME280;3133;43.214;27.906;2023-08-20T02:51:43;100693.94;;;22.78;100.00
6200;BME280;3133;43.214;27.906;2023-08-20T02:54:10;100684.22;;;22.38;100.00
6200;BME280;3133;43.214;27.906;2023-08-20T02:56:39;100695.31;;;22.48;100.00
6200;BME280;3133;43.214;27.906;2023-08-20T02:59:06;100698.38;;;22.59;100.00
6200;BME280;3133;43.214;27.906;2023-08-20T03:01:32;100697.44;;;22.60;100.00
6200;BME280;3133;43.214;27.906;2023-08-20T03:03:59;100692.03;;;22.61;100.00
6200;BME280;3133;43.214;27.906;2023-08-20T03:06:26;100693.56;;;22.67;100.00
6200;BME280;3133;43.214;27.906;2023-08-20T03:08:54;100688.38;;;22.64;100.00
6200;BME280;3133;43.214;27.906;2023-08-20T03:11:21;100690.75;;;22.70;100.00
6200;BME280;3133;43.214;27.906;2023-08-20T03:13:49;100694.84;;;22.77;100.00
6200;BME280;3133;43.214;27.906;2023-08-20T03:16:16;100672.28;;;22.67;100.00
6200;BME280;3133;43.214;27.906;2023-08-20T03:18:42;100683.50;;;22.73;100.00
6200;BME280;3133;43.214;27.906;2023-08-20T03:21:09;100678.88;;;22.77;100.00
6200;BME280;3133;43.214;27.906;2023-08-20T03:23:36;100684.06;;;22.80;100.00
6200;BME280;3133;43.214;27.906;2023-08-20T03:26:03;100658.69;;;22.54;100.00
6200;BME280;3133;43.214;27.906;2023-08-20T03:28:32;100689.69;;;22.74;100.00
6200;BME280;3133;43.214;27.906;2023-08-20T03:31:00;100695.06;;;22.72;100.00
6200;BME280;3133;43.214;27.906;2023-08-20T03:33:27;100691.28;;;22.78;100.00
6200;BME280;3133;43.214;27.906;2023-08-20T03:35:54;100698.88;;;22.67;100.00
6200;BME280;3133;43.214;27.906;2023-08-20T03:38:21;100695.34;;;22.66;100.00
6200;BME280;3133;43.214;27.906;2023-08-20T03:40:49;100685.41;;;22.70;100.00
6200;BME280;3133;43.214;27.906;2023-08-20T03:43:16;100678.47;;;22.67;100.00
6200;BME280;3133;43.214;27.906;2023-08-20T03:45:43;100685.00;;;22.79;100.00
6200;BME280;3133;43.214;27.906;2023-08-20T03:48:11;100690.84;;;22.87;100.00
6200;BME280;3133;43.214;27.906;2023-08-20T03:50:38;100687.56;;;22.99;100.00
6200;BME280;3133;43.214;27.906;2023-08-20T03:53:04;100666.22;;;23.01;100.00
6200;BME280;3133;43.214;27.906;2023-08-20T03:55:31;100675.84;;;23.03;100.00
6200;BME280;3133;43.214;27.906;2023-08-20T03:57:58;100683.59;;;23.08;100.00
6200;BME280;3133;43.214;27.906;2023-08-20T04:00:25;100685.25;;;23.10;100.00
6200;BME280;3133;43.214;27.906;2023-08-20T04:02:52;100678.69;;;23.17;100.00
6200;BME280;3133;43.214;27.906;2023-08-20T04:05:20;100689.84;;;23.25;100.00
6200;BME280;3133;43.214;27.906;2023-08-20T04:07:47;100673.22;;;23.20;100.00
6200;BME280;3133;43.214;27.906;2023-08-20T04:10:13;100678.09;;;23.29;100.00
6200;BME280;3133;43.214;27.906;2023-08-20T04:12:40;100684.63;;;23.41;100.00
6200;BME280;3133;43.214;27.906;2023-08-20T04:15:08;100687.13;;;23.44;100.00
6200;BME280;3133;43.214;27.906;2023-08-20T04:17:35;100685.16;;;23.47;100.00
6200;BME280;3133;43.214;27.906;2023-08-20T04:20:02;100680.63;;;23.49;100.00
6200;BME280;3133;43.214;27.906;2023-08-20T04:22:34;100682.22;;;23.53;100.00
6200;BME280;3133;43.214;27.906;2023-08-20T04:25:02;100681.72;;;23.62;100.00
6200;BME280;3133;43.214;27.906;2023-08-20T04:27:29;100677.19;;;23.64;100.00
6200;BME280;3133;43.214;27.906;2023-08-20T04:29:56;100659.88;;;23.56;100.00
6200;BME280;3133;43.214;27.906;2023-08-20T04:32:23;100651.75;;;23.59;100.00
6200;BME280;3133;43.214;27.906;2023-08-20T04:34:50;100661.16;;;23.66;100.00
6200;BME280;3133;43.214;27.906;2023-08-20T04:37:18;100690.44;;;23.83;100.00
6200;BME280;3133;43.214;27.906;2023-08-20T04:39:52;100681.97;;;23.92;100.00
6200;BME280;3133;43.214;27.906;2023-08-20T04:42:19;100665.19;;;23.90;100.00
6200;BME280;3133;43.214;27.906;2023-08-20T04:44:46;100675.13;;;24.04;100.00
6200;BME280;3133;43.214;27.906;2023-08-20T04:47:13;100673.19;;;24.07;100.00
6200;BME280;3133;43.214;27.906;2023-08-20T04:49:40;100669.50;;;23.93;100.00
6200;BME280;3133;43.214;27.906;2023-08-20T04:52:07;100683.69;;;24.10;100.00
6200;BME280;3133;43.214;27.906;2023-08-20T04:54:37;100680.63;;;24.18;100.00
6200;BME280;3133;43.214;27.906;2023-08-20T04:57:06;100673.28;;;24.38;100.00
6200;BME280;3133;43.214;27.906;2023-08-20T04:59:34;100687.28;;;24.42;100.00
6200;BME280;3133;43.214;27.906;2023-08-20T05:02:01;100661.50;;;24.43;100.00
6200;BME280;3133;43.214;27.906;2023-08-20T05:04:28;100684.84;;;24.70;100.00
6200;BME280;3133;43.214;27.906;2023-08-20T05:06:55;100683.16;;;24.85;100.00
6200;BME280;3133;43.214;27.906;2023-08-20T05:09:22;100655.44;;;24.87;100.00
6200;BME280;3133;43.214;27.906;2023-08-20T05:11:48;100674.22;;;25.01;100.00
6200;BME280;3133;43.214;27.906;2023-08-20T05:14:17;100683.75;;;25.21;100.00
6200;BME280;3133;43.214;27.906;2023-08-20T05:16:43;100684.16;;;25.29;100.00
6200;BME280;3133;43.214;27.906;2023-08-20T05:19:10;100684.53;;;25.23;100.00
6200;BME280;3133;43.214;27.906;2023-08-20T05:21:37;100675.22;;;25.15;100.00
6200;BME280;3133;43.214;27.906;2023-08-20T05:24:04;100695.16;;;25.39;100.00
6200;BME280;3133;43.214;27.906;2023-08-20T05:26:31;100665.72;;;25.70;100.00
6200;BME280;3133;43.214;27.906;2023-08-20T05:28:58;100677.41;;;25.97;100.00
6200;BME280;3133;43.214;27.906;2023-08-20T05:31:28;100678.94;;;26.01;100.00
6200;BME280;3133;43.214;27.906;2023-08-20T05:33:55;100658.22;;;25.91;100.00
6200;BME280;3133;43.214;27.906;2023-08-20T05:36:22;100679.53;;;26.06;100.00
6200;BME280;3133;43.214;27.906;2023-08-20T05:38:49;100671.75;;;26.17;100.00
6200;BME280;3133;43.214;27.906;2023-08-20T05:41:16;100682.81;;;26.25;100.00
6200;BME280;3133;43.214;27.906;2023-08-20T05:43:43;100674.31;;;26.33;100.00
6200;BME280;3133;43.214;27.906;2023-08-20T05:46:10;100642.88;;;26.36;100.00
6200;BME280;3133;43.214;27.906;2023-08-20T05:48:38;100671.47;;;26.50;100.00
6200;BME280;3133;43.214;27.906;2023-08-20T05:51:05;100671.25;;;26.67;100.00
6200;BME280;3133;43.214;27.906;2023-08-20T05:53:32;100624.13;;;26.50;100.00
6200;BME280;3133;43.214;27.906;2023-08-20T05:55:58;100654.88;;;26.86;100.00
6200;BME280;3133;43.214;27.906;2023-08-20T05:58:26;100668.94;;;27.16;100.00
6200;BME280;3133;43.214;27.906;2023-08-20T06:00:53;100676.16;;;27.28;100.00
6200;BME280;3133;43.214;27.906;2023-08-20T06:03:20;100666.16;;;27.44;100.00
6200;BME280;3133;43.214;27.906;2023-08-20T06:05:48;100666.31;;;27.55;100.00
6200;BME280;3133;43.214;27.906;2023-08-20T06:08:14;100671.16;;;27.75;100.00
6200;BME280;3133;43.214;27.906;2023-08-20T06:10:41;100642.97;;;27.82;100.00
6200;BME280;3133;43.214;27.906;2023-08-20T06:13:08;100675.94;;;28.09;100.00
6200;BME280;3133;43.214;27.906;2023-08-20T06:15:36;100656.38;;;28.20;100.00
6200;BME280;3133;43.214;27.906;2023-08-20T06:18:06;100626.78;;;28.09;100.00
6200;BME280;3133;43.214;27.906;2023-08-20T06:20:33;100659.56;;;28.50;100.00
6200;BME280;3133;43.214;27.906;2023-08-20T06:23:01;100673.81;;;28.76;100.00
6200;BME280;3133;43.214;27.906;2023-08-20T06:25:28;100640.84;;;28.74;100.00
6200;BME280;3133;43.214;27.906;2023-08-20T06:27:54;100646.63;;;28.80;100.00
6200;BME280;3133;43.214;27.906;2023-08-20T06:30:21;100638.13;;;28.87;100.00
6200;BME280;3133;43.214;27.906;2023-08-20T06:32:48;100619.84;;;28.92;100.00
6200;BME280;3133;43.214;27.906;2023-08-20T06:35:15;100668.56;;;29.34;100.00
6200;BME280;3133;43.214;27.906;2023-08-20T06:37:42;100665.72;;;29.59;100.00
6200;BME280;3133;43.214;27.906;2023-08-20T06:40:11;100638.19;;;29.80;100.00
6200;BME280;3133;43.214;27.906;2023-08-20T06:42:39;100651.97;;;30.43;100.00
6200;BME280;3133;43.214;27.906;2023-08-20T06:45:08;100648.16;;;30.90;100.00
6200;BME280;3133;43.214;27.906;2023-08-20T06:47:35;100661.00;;;31.40;100.00
6200;BME280;3133;43.214;27.906;2023-08-20T06:50:02;100610.47;;;31.11;100.00
6200;BME280;3133;43.214;27.906;2023-08-20T06:52:29;100642.41;;;31.26;100.00
6200;BME280;3133;43.214;27.906;2023-08-20T06:54:58;100656.94;;;31.46;100.00
6200;BME280;3133;43.214;27.906;2023-08-20T06:57:26;100649.81;;;31.45;100.00
6200;BME280;3133;43.214;27.906;2023-08-20T06:59:53;100662.88;;;31.81;100.00
6200;BME280;3133;43.214;27.906;2023-08-20T07:02:20;100652.03;;;31.71;100.00
6200;BME280;3133;43.214;27.906;2023-08-20T07:04:46;100654.22;;;32.28;100.00
6200;BME280;3133;43.214;27.906;2023-08-20T07:07:13;100653.22;;;32.50;100.00
6200;BME280;3133;43.214;27.906;2023-08-20T07:09:41;100661.16;;;32.51;100.00
6200;BME280;3133;43.214;27.906;2023-08-20T07:12:11;100650.41;;;32.61;100.00
6200;BME280;3133;43.214;27.906;2023-08-20T07:14:39;100652.38;;;32.59;100.00
6200;BME280;3133;43.214;27.906;2023-08-20T07:17:06;100650.00;;;32.35;100.00
6200;BME280;3133;43.214;27.906;2023-08-20T07:19:33;100661.88;;;32.23;100.00
6200;BME280;3133;43.214;27.906;2023-08-20T07:21:59;100644.38;;;32.18;100.00
6200;BME280;3133;43.214;27.906;2023-08-20T07:24:26;100637.16;;;32.48;100.00
6200;BME280;3133;43.214;27.906;2023-08-20T07:26:55;100613.91;;;32.86;100.00
6200;BME280;3133;43.214;27.906;2023-08-20T07:29:26;100652.25;;;33.86;96.82
6200;BME280;3133;43.214;27.906;2023-08-20T07:31:57;100645.44;;;33.82;93.45
6200;BME280;3133;43.214;27.906;2023-08-20T07:34:23;100622.72;;;34.12;88.25
6200;BME280;3133;43.214;27.906;2023-08-20T07:36:50;100650.78;;;34.48;86.59
6200;BME280;3133;43.214;27.906;2023-08-20T07:39:17;100645.03;;;34.88;81.17
6200;BME280;3133;43.214;27.906;2023-08-20T07:41:44;100630.63;;;34.87;79.18
6200;BME280;3133;43.214;27.906;2023-08-20T07:44:11;100638.13;;;34.93;78.04
6200;BME280;3133;43.214;27.906;2023-08-20T07:46:37;100634.44;;;34.67;79.30
6200;BME280;3133;43.214;27.906;2023-08-20T07:49:06;100631.84;;;33.92;85.24
6200;BME280;3133;43.214;27.906;2023-08-20T07:51:32;100651.56;;;33.75;89.04
6200;BME280;3133;43.214;27.906;2023-08-20T07:54:03;100579.53;;;33.26;90.81
6200;BME280;3133;43.214;27.906;2023-08-20T07:56:30;100638.44;;;33.32;93.94
6200;BME280;3133;43.214;27.906;2023-08-20T07:58:57;100635.03;;;33.30;96.79
6200;BME280;3133;43.214;27.906;2023-08-20T08:01:24;100634.47;;;33.36;97.59
6200;BME280;3133;43.214;27.906;2023-08-20T08:03:51;100625.34;;;33.08;100.00
6200;BME280;3133;43.214;27.906;2023-08-20T08:06:19;100616.53;;;33.35;100.00
6200;BME280;3133;43.214;27.906;2023-08-20T08:08:48;100623.50;;;33.38;99.32
6200;BME280;3133;43.214;27.906;2023-08-20T08:11:15;100634.03;;;33.12;98.95
6200;BME280;3133;43.214;27.906;2023-08-20T08:13:42;100603.72;;;33.18;100.00
6200;BME280;3133;43.214;27.906;2023-08-20T08:16:09;100630.06;;;33.35;99.91
6200;BME280;3133;43.214;27.906;2023-08-20T08:18:36;100612.25;;;33.23;100.00
6200;BME280;3133;43.214;27.906;2023-08-20T08:21:03;100621.22;;;33.04;100.00
6200;BME280;3133;43.214;27.906;2023-08-20T08:23:34;100625.38;;;33.18;100.00
6200;BME280;3133;43.214;27.906;2023-08-20T08:26:00;100629.50;;;33.22;100.00
6200;BME280;3133;43.214;27.906;2023-08-20T08:28:27;100631.91;;;33.15;100.00
6200;BME280;3133;43.214;27.906;2023-08-20T08:30:54;100630.41;;;32.83;100.00
6200;BME280;3133;43.214;27.906;2023-08-20T08:33:21;100624.13;;;32.82;100.00
6200;BME280;3133;43.214;27.906;2023-08-20T08:35:50;100621.31;;;32.93;100.00
6200;BME280;3133;43.214;27.906;2023-08-20T08:38:17;100621.03;;;32.96;100.00
6200;BME280;3133;43.214;27.906;2023-08-20T08:40:45;100622.63;;;32.99;100.00
6200;BME280;3133;43.214;27.906;2023-08-20T08:43:14;100620.09;;;33.07;98.75
6200;BME280;3133;43.214;27.906;2023-08-20T08:45:46;100631.59;;;32.99;97.44
6200;BME280;3133;43.214;27.906;2023-08-20T08:48:14;100579.28;;;32.61;99.85
6200;BME280;3133;43.214;27.906;2023-08-20T08:50:42;100612.69;;;33.09;96.45
6200;BME280;3133;43.214;27.906;2023-08-20T08:53:10;100615.09;;;33.41;92.60
6200;BME280;3133;43.214;27.906;2023-08-20T08:55:37;100556.00;;;32.98;89.16
6200;BME280;3133;43.214;27.906;2023-08-20T08:58:05;100597.00;;;33.32;91.41
6200;BME280;3133;43.214;27.906;2023-08-20T09:00:32;100595.16;;;33.32;92.50
6200;BME280;3133;43.214;27.906;2023-08-20T09:02:59;100616.78;;;33.42;89.96
6200;BME280;3133;43.214;27.906;2023-08-20T09:05:26;100618.66;;;33.41;84.10
6200;BME280;3133;43.214;27.906;2023-08-20T09:07:55;100618.34;;;33.44;81.13
6200;BME280;3133;43.214;27.906;2023-08-20T09:10:25;100616.81;;;33.32;81.13
6200;BME280;3133;43.214;27.906;2023-08-20T09:12:54;100611.09;;;33.16;83.81
6200;BME280;3133;43.214;27.906;2023-08-20T09:15:31;100608.56;;;33.24;83.25
6200;BME280;3133;43.214;27.906;2023-08-20T09:18:01;100619.94;;;33.37;82.42
6200;BME280;3133;43.214;27.906;2023-08-20T09:20:35;100622.94;;;33.63;82.20
6200;BME280;3133;43.214;27.906;2023-08-20T09:23:01;100605.25;;;33.49;78.12
6200;BME280;3133;43.214;27.906;2023-08-20T09:25:30;100626.22;;;33.66;75.31
6200;BME280;3133;43.214;27.906;2023-08-20T09:28:04;100612.53;;;33.68;76.22
6200;BME280;3133;43.214;27.906;2023-08-20T09:30:33;100574.66;;;33.30;74.97
6200;BME280;3133;43.214;27.906;2023-08-20T09:33:04;100605.97;;;33.42;75.31
6200;BME280;3133;43.214;27.906;2023-08-20T09:35:31;100611.53;;;33.50;77.43
6200;BME280;3133;43.214;27.906;2023-08-20T09:37:59;100608.41;;;33.64;81.06
6200;BME280;3133;43.214;27.906;2023-08-20T09:40:27;100604.72;;;33.46;100.00
6200;BME280;3133;43.214;27.906;2023-08-20T09:42:54;100612.41;;;33.41;98.47
6200;BME280;3133;43.214;27.906;2023-08-20T09:45:27;100612.81;;;33.46;88.02
6200;BME280;3133;43.214;27.906;2023-08-20T09:47:58;100593.03;;;33.36;83.82
6200;BME280;3133;43.214;27.906;2023-08-20T09:50:26;100622.94;;;33.53;83.63
6200;BME280;3133;43.214;27.906;2023-08-20T09:53:03;100606.69;;;33.24;91.35
6200;BME280;3133;43.214;27.906;2023-08-20T09:55:34;100625.09;;;33.31;88.94
6200;BME280;3133;43.214;27.906;2023-08-20T09:58:02;100614.38;;;33.39;88.84
6200;BME280;3133;43.214;27.906;2023-08-20T10:00:30;100597.72;;;33.34;74.30
6200;BME280;3133;43.214;27.906;2023-08-20T10:02:58;100613.97;;;33.43;68.87
6200;BME280;3133;43.214;27.906;2023-08-20T10:05:26;100613.19;;;32.93;100.00
6200;BME280;3133;43.214;27.906;2023-08-20T10:07:53;100614.81;;;33.15;96.67
6200;BME280;3133;43.214;27.906;2023-08-20T10:10:23;100599.66;;;32.84;89.78
6200;BME280;3133;43.214;27.906;2023-08-20T10:12:54;100625.13;;;32.72;100.00
6200;BME280;3133;43.214;27.906;2023-08-20T10:15:23;100603.03;;;32.67;72.25
6200;BME280;3133;43.214;27.906;2023-08-20T10:17:52;100592.69;;;32.72;67.72
6200;BME280;3133;43.214;27.906;2023-08-20T10:20:20;100614.66;;;33.16;63.38
6200;BME280;3133;43.214;27.906;2023-08-20T10:22:50;100619.78;;;33.29;88.38
6200;BME280;3133;43.214;27.906;2023-08-20T10:25:22;100603.69;;;32.99;100.00
6200;BME280;3133;43.214;27.906;2023-08-20T10:27:50;100614.31;;;32.41;100.00
6200;BME280;3133;43.214;27.906;2023-08-20T10:30:18;100619.50;;;32.24;100.00
6200;BME280;3133;43.214;27.906;2023-08-20T10:32:48;100634.81;;;32.14;100.00
6200;BME280;3133;43.214;27.906;2023-08-20T10:35:18;100603.31;;;32.24;100.00
6200;BME280;3133;43.214;27.906;2023-08-20T10:38:04;100609.81;;;32.51;100.00
6200;BME280;3133;43.214;27.906;2023-08-20T10:40:53;100611.31;;;32.35;97.53
6200;BME280;3133;43.214;27.906;2023-08-20T10:43:30;100568.84;;;32.07;97.24
6200;BME280;3133;43.214;27.906;2023-08-20T10:46:04;100598.22;;;32.30;89.59
6200;BME280;3133;43.214;27.906;2023-08-20T10:48:37;100601.94;;;32.39;87.40
6200;BME280;3133;43.214;27.906;2023-08-20T10:51:11;100603.91;;;32.27;91.05
6200;BME280;3133;43.214;27.906;2023-08-20T10:53:41;100541.94;;;31.96;88.06
6200;BME280;3133;43.214;27.906;2023-08-20T10:56:12;100589.84;;;32.33;79.91
6200;BME280;3133;43.214;27.906;2023-08-20T10:58:45;100582.41;;;32.16;78.42
6200;BME280;3133;43.214;27.906;2023-08-20T11:01:17;100606.47;;;32.29;78.73
6200;BME280;3133;43.214;27.906;2023-08-20T11:03:45;100611.91;;;32.38;76.27
6200;BME280;3133;43.214;27.906;2023-08-20T11:06:12;100607.88;;;32.54;71.80
6200;BME280;3133;43.214;27.906;2023-08-20T11:08:41;100610.44;;;32.65;75.48
6200;BME280;3133;43.214;27.906;2023-08-20T11:11:08;100609.19;;;32.78;83.76
6200;BME280;3133;43.214;27.906;2023-08-20T11:13:36;100594.94;;;32.67;95.61
6200;BME280;3133;43.214;27.906;2023-08-20T11:16:03;100599.81;;;32.73;100.00
6200;BME280;3133;43.214;27.906;2023-08-20T11:18:31;100607.13;;;32.51;100.00
6200;BME280;3133;43.214;27.906;2023-08-20T11:20:59;100580.41;;;32.48;100.00
6200;BME280;3133;43.214;27.906;2023-08-20T11:23:26;100604.88;;;32.47;100.00
6200;BME280;3133;43.214;27.906;2023-08-20T11:25:56;100583.97;;;32.59;100.00
6200;BME280;3133;43.214;27.906;2023-08-20T11:28:25;100595.94;;;32.66;100.00
6200;BME280;3133;43.214;27.906;2023-08-20T11:30:52;100469.94;;;31.96;100.00
6200;BME280;3133;43.214;27.906;2023-08-20T11:33:21;100598.56;;;32.46;100.00
6200;BME280;3133;43.214;27.906;2023-08-20T11:35:48;100574.78;;;32.31;100.00
6200;BME280;3133;43.214;27.906;2023-08-20T11:38:15;100597.25;;;32.31;100.00
6200;BME280;3133;43.214;27.906;2023-08-20T11:40:42;100602.34;;;32.34;100.00
6200;BME280;3133;43.214;27.906;2023-08-20T11:43:10;100558.78;;;32.09;100.00
6200;BME280;3133;43.214;27.906;2023-08-20T11:45:45;100539.72;;;31.80;100.00
6200;BME280;3133;43.214;27.906;2023-08-20T11:48:13;100593.53;;;32.32;100.00
6200;BME280;3133;43.214;27.906;2023-08-20T11:50:40;100597.81;;;32.35;100.00
6200;BME280;3133;43.214;27.906;2023-08-20T11:53:08;100578.03;;;32.25;100.00
6200;BME280;3133;43.214;27.906;2023-08-20T11:55:35;100595.53;;;32.30;100.00
6200;BME280;3133;43.214;27.906;2023-08-20T11:58:04;100589.56;;;32.36;100.00
6200;BME280;3133;43.214;27.906;2023-08-20T12:00:32;100598.91;;;32.23;100.00
6200;BME280;3133;43.214;27.906;2023-08-20T12:02:59;100583.53;;;32.14;100.00
6200;BME280;3133;43.214;27.906;2023-08-20T12:05:27;100586.28;;;32.23;100.00
6200;BME280;3133;43.214;27.906;2023-08-20T12:07:57;100581.59;;;32.25;100.00
6200;BME280;3133;43.214;27.906;2023-08-20T12:10:26;100570.19;;;32.22;100.00
6200;BME280;3133;43.214;27.906;2023-08-20T12:12:54;100565.47;;;32.14;100.00
6200;BME280;3133;43.214;27.906;2023-08-20T12:15:22;100583.28;;;32.26;100.00
6200;BME280;3133;43.214;27.906;2023-08-20T12:18:03;100514.91;;;31.86;100.00
6200;BME280;3133;43.214;27.906;2023-08-20T12:20:33;100579.63;;;32.37;100.00
6200;BME280;3133;43.214;27.906;2023-08-20T12:23:02;100576.59;;;32.30;100.00
6200;BME280;3133;43.214;27.906;2023-08-20T12:25:31;100515.63;;;31.88;100.00
6200;BME280;3133;43.214;27.906;2023-08-20T12:28:00;100569.09;;;32.34;100.00
6200;BME280;3133;43.214;27.906;2023-08-20T12:30:29;100568.03;;;32.06;100.00
6200;BME280;3133;43.214;27.906;2023-08-20T12:32:58;100584.25;;;32.16;100.00
6200;BME280;3133;43.214;27.906;2023-08-20T12:35:28;100577.97;;;32.06;100.00
6200;BME280;3133;43.214;27.906;2023-08-20T12:37:55;100584.00;;;31.98;100.00
6200;BME280;3133;43.214;27.906;2023-08-20T12:40:22;100583.09;;;31.88;100.00
6200;BME280;3133;43.214;27.906;2023-08-20T12:42:49;100575.41;;;31.84;100.00
6200;BME280;3133;43.214;27.906;2023-08-20T12:45:16;100579.88;;;31.73;100.00
6200;BME280;3133;43.214;27.906;2023-08-20T12:47:42;100577.72;;;31.67;100.00
6200;BME280;3133;43.214;27.906;2023-08-20T12:50:09;100578.38;;;31.60;100.00
6200;BME280;3133;43.214;27.906;2023-08-20T12:52:40;100566.28;;;31.54;100.00
6200;BME280;3133;43.214;27.906;2023-08-20T12:55:08;100580.59;;;31.55;100.00
6200;BME280;3133;43.214;27.906;2023-08-20T12:57:36;100582.16;;;31.48;100.00
6200;BME280;3133;43.214;27.906;2023-08-20T13:00:04;100574.00;;;31.27;100.00